createdAt,value
2023-02-20T00:02:16.497Z,93.28
2023-02-20T00:04:42.890Z,93.23
2023-02-20T00:07:09.244Z,93.22
2023-02-20T00:09:35.574Z,93.26
2023-02-20T00:12:01.883Z,93.17
2023-02-20T00:14:30.021Z,93.08
2023-02-20T00:16:56.698Z,93.02
2023-02-20T00:19:23.026Z,93.05
2023-02-20T00:21:50.614Z,93.04
2023-02-20T00:24:17.877Z,93.07
2023-02-20T00:26:49.625Z,93.04
2023-02-20T00:29:21.903Z,92.78
2023-02-20T00:31:55.950Z,93.06
2023-02-20T00:34:23.378Z,92.95
2023-02-20T00:36:49.701Z,92.87
2023-02-20T00:39:16.435Z,93.00
2023-02-20T00:41:42.862Z,92.86
2023-02-20T00:44:09.497Z,92.79
2023-02-20T00:46:35.875Z,92.87
2023-02-20T00:49:02.473Z,92.56
2023-02-20T00:51:28.962Z,92.76
2023-02-20T00:53:55.467Z,92.72
2023-02-20T00:56:22.120Z,92.61
2023-02-20T00:58:48.487Z,92.71
2023-02-20T01:01:16.437Z,92.68
2023-02-20T01:03:43.682Z,92.73
2023-02-20T01:06:10.771Z,92.74
2023-02-20T01:08:37.158Z,92.65
2023-02-20T01:11:03.746Z,92.86
2023-02-20T01:13:30.153Z,92.84
2023-02-20T01:15:56.495Z,92.58
2023-02-20T01:18:23.150Z,92.82
2023-02-20T01:20:49.527Z,92.81
2023-02-20T01:23:15.849Z,92.87
2023-02-20T01:25:42.916Z,92.74
2023-02-20T01:28:09.657Z,92.77
2023-02-20T01:30:35.986Z,92.91
2023-02-20T01:33:02.799Z,92.67
2023-02-20T01:35:31.881Z,92.96
2023-02-20T01:37:59.419Z,92.83
2023-02-20T01:40:27.668Z,92.87
2023-02-20T01:42:54.311Z,92.92
2023-02-20T01:45:23.415Z,92.85
2023-02-20T01:47:52.208Z,92.97
2023-02-20T01:50:21.499Z,92.94
2023-02-20T01:52:52.724Z,92.94
2023-02-20T01:55:28.326Z,92.97
2023-02-20T01:58:01.259Z,93.30
2023-02-20T02:00:28.026Z,93.24
2023-02-20T02:03:14.428Z,93.46
2023-02-20T02:05:44.222Z,93.56
2023-02-20T02:08:12.674Z,93.42
2023-02-20T02:10:59.520Z,93.61
2023-02-20T02:13:25.897Z,93.65
2023-02-20T02:15:58.956Z,93.73
2023-02-20T02:19:09.753Z,93.80
2023-02-20T02:22:04.469Z,93.90
2023-02-20T02:25:08.108Z,94.03
2023-02-20T02:27:43.393Z,94.22
2023-02-20T02:30:38.914Z,94.14
2023-02-20T02:33:35.074Z,94.15
2023-02-20T02:36:38.631Z,94.24
2023-02-20T02:39:23.265Z,94.32
2023-02-20T02:41:52.622Z,94.29
2023-02-20T02:44:30.095Z,94.29
2023-02-20T02:46:59.961Z,94.36
2023-02-20T02:49:34.124Z,94.48
2023-02-20T02:52:01.312Z,94.52
2023-02-20T02:54:28.755Z,94.59
2023-02-20T02:57:20.230Z,94.67
2023-02-20T02:59:49.062Z,94.75
2023-02-20T03:02:18.803Z,94.88
2023-02-20T03:04:49.422Z,94.84
2023-02-20T03:07:17.554Z,95.02
2023-02-20T03:09:54.113Z,95.05
2023-02-20T03:12:22.368Z,94.92
2023-02-20T03:15:18.598Z,95.09
2023-02-20T03:18:00.281Z,95.01
2023-02-20T03:20:27.074Z,95.06
2023-02-20T03:22:59.711Z,95.02
2023-02-20T03:25:36.544Z,95.00
2023-02-20T03:28:06.719Z,95.15
2023-02-20T03:30:47.102Z,95.18
2023-02-20T03:33:38.078Z,95.04
2023-02-20T03:36:27.278Z,95.18
2023-02-20T03:39:20.663Z,94.97
2023-02-20T03:42:07.649Z,95.03
2023-02-20T03:44:35.727Z,94.92
2023-02-20T03:47:03.482Z,94.88
2023-02-20T03:49:55.460Z,94.86
2023-02-20T03:52:23.405Z,94.88
2023-02-20T03:54:50.681Z,94.79
2023-02-20T03:57:30.856Z,94.76
2023-02-20T04:00:09.751Z,94.83
2023-02-20T04:02:45.384Z,94.67
2023-02-20T04:05:18.054Z,94.62
2023-02-20T04:08:05.355Z,94.79
2023-02-20T04:10:40.297Z,94.72
2023-02-20T04:13:08.285Z,94.77
2023-02-20T04:15:35.955Z,94.68
2023-02-20T04:18:10.668Z,94.60
2023-02-20T04:20:37.565Z,94.62
2023-02-20T04:23:19.903Z,94.64
2023-02-20T04:25:55.311Z,94.54
2023-02-20T04:28:22.721Z,94.68
2023-02-20T04:30:50.338Z,94.48
2023-02-20T04:33:16.920Z,94.47
2023-02-20T04:35:43.493Z,94.38
2023-02-20T04:38:10.679Z,94.40
2023-02-20T04:40:37.019Z,94.39
2023-02-20T04:43:03.822Z,94.50
2023-02-20T04:45:30.263Z,94.43
2023-02-20T04:47:56.607Z,94.32
2023-02-20T04:50:29.431Z,94.25
2023-02-20T04:52:55.934Z,94.30
2023-02-20T04:55:22.962Z,94.28
2023-02-20T04:57:49.895Z,94.16
2023-02-20T05:00:18.650Z,94.29
2023-02-20T05:02:45.056Z,94.10
2023-02-20T05:05:21.746Z,94.09
2023-02-20T05:07:48.557Z,94.04
2023-02-20T05:10:20.314Z,94.06
2023-02-20T05:12:46.756Z,93.95
2023-02-20T05:15:13.684Z,93.88
2023-02-20T05:17:40.058Z,93.92
2023-02-20T05:20:07.778Z,93.84
2023-02-20T05:22:34.140Z,93.89
2023-02-20T05:25:00.791Z,93.83
2023-02-20T05:27:28.056Z,93.82
2023-02-20T05:29:56.989Z,93.78
2023-02-20T05:32:25.900Z,93.74
2023-02-20T05:34:52.412Z,93.51
2023-02-20T05:37:20.731Z,93.63
2023-02-20T05:39:47.799Z,93.60
2023-02-20T05:42:15.031Z,93.47
2023-02-20T05:44:41.635Z,93.41
2023-02-20T05:47:08.691Z,93.51
2023-02-20T05:49:35.926Z,93.43
2023-02-20T05:52:04.356Z,93.59
2023-02-20T05:54:30.683Z,93.31
2023-02-20T05:56:57.019Z,93.21
2023-02-20T05:59:23.869Z,93.16
2023-02-20T06:01:55.665Z,93.21
2023-02-20T06:04:22.413Z,93.15
2023-02-20T06:06:48.818Z,93.12
2023-02-20T06:09:17.029Z,92.90
2023-02-20T06:11:51.646Z,92.81
2023-02-20T06:14:19.133Z,92.77
2023-02-20T06:16:46.073Z,92.82
2023-02-20T06:19:17.138Z,92.75
2023-02-20T06:21:46.721Z,92.64
2023-02-20T06:24:13.059Z,92.57
2023-02-20T06:26:41.556Z,92.50
2023-02-20T06:29:08.308Z,92.46
2023-02-20T06:31:34.727Z,92.28
2023-02-20T06:34:01.125Z,92.21
2023-02-20T06:36:31.249Z,92.11
2023-02-20T06:38:58.847Z,92.10
2023-02-20T06:41:25.531Z,92.03
2023-02-20T06:43:51.980Z,92.19
2023-02-20T06:46:18.386Z,91.98
2023-02-20T06:48:50.253Z,91.98
2023-02-20T06:51:18.017Z,91.96
2023-02-20T06:53:44.370Z,91.85
2023-02-20T06:56:15.693Z,91.89
2023-02-20T06:58:42.265Z,91.72
2023-02-20T07:01:08.658Z,91.75
2023-02-20T07:03:35.082Z,91.67
2023-02-20T07:06:01.395Z,91.67
2023-02-20T07:08:28.054Z,91.89
2023-02-20T07:10:55.494Z,91.77
2023-02-20T07:13:22.462Z,91.64
2023-02-20T07:15:49.688Z,91.59
2023-02-20T07:18:17.268Z,91.68
2023-02-20T07:20:44.156Z,91.48
2023-02-20T07:23:10.682Z,91.52
2023-02-20T07:25:37.073Z,91.55
2023-02-20T07:28:03.506Z,91.55
2023-02-20T07:30:29.888Z,91.50
2023-02-20T07:32:56.340Z,91.49
2023-02-20T07:35:22.635Z,91.39
2023-02-20T07:37:49.195Z,91.46
2023-02-20T07:40:15.582Z,91.48
2023-02-20T07:42:41.895Z,91.68
2023-02-20T07:45:10.645Z,91.60
2023-02-20T07:47:37.040Z,91.38
2023-02-20T07:50:03.730Z,91.42
2023-02-20T07:52:30.044Z,91.55
2023-02-20T07:54:56.436Z,91.50
2023-02-20T07:57:22.925Z,91.49
2023-02-20T07:59:49.323Z,91.56
2023-02-20T08:02:15.938Z,91.58
2023-02-20T08:04:42.354Z,91.55
2023-02-20T08:07:08.868Z,91.49
2023-02-20T08:09:35.259Z,91.48
2023-02-20T08:12:01.706Z,91.40
2023-02-20T08:14:28.696Z,91.53
2023-02-20T08:16:55.073Z,91.37
2023-02-20T08:19:21.723Z,91.53
2023-02-20T08:21:48.036Z,91.50
2023-02-20T08:24:14.413Z,91.53
2023-02-20T08:26:45.082Z,91.39
2023-02-20T08:29:11.445Z,91.32
2023-02-20T08:31:37.903Z,90.96
2023-02-20T08:34:04.403Z,91.15
2023-02-20T08:36:31.247Z,91.28
2023-02-20T08:38:57.837Z,90.89
2023-02-20T08:41:24.418Z,91.08
2023-02-20T08:43:51.098Z,91.01
2023-02-20T08:46:17.642Z,91.06
2023-02-20T08:48:44.978Z,90.79
2023-02-20T08:51:12.757Z,90.69
2023-02-20T08:53:39.919Z,90.49
2023-02-20T08:56:07.079Z,90.43
2023-02-20T08:58:33.418Z,90.55
2023-02-20T09:00:59.772Z,90.56
2023-02-20T09:03:27.363Z,90.59
2023-02-20T09:05:53.912Z,90.43
2023-02-20T09:08:20.419Z,90.55
2023-02-20T09:10:46.968Z,90.50
2023-02-20T09:13:14.159Z,90.44
2023-02-20T09:15:40.654Z,90.55
2023-02-20T09:18:10.736Z,90.27
2023-02-20T09:20:37.963Z,90.43
2023-02-20T09:23:05.075Z,90.52
2023-02-20T09:25:31.543Z,90.03
2023-02-20T09:27:58.058Z,90.16
2023-02-20T09:30:24.695Z,90.30
2023-02-20T09:32:52.192Z,90.19
2023-02-20T09:35:25.185Z,90.34
2023-02-20T09:37:51.664Z,90.51
2023-02-20T09:40:22.461Z,90.51
2023-02-20T09:43:23.215Z,90.54
2023-02-20T09:46:02.417Z,90.37
2023-02-20T09:48:46.729Z,90.22
2023-02-20T09:51:17.881Z,90.31
2023-02-20T09:54:03.010Z,90.14
2023-02-20T09:56:40.915Z,90.30
2023-02-20T09:59:18.030Z,90.32
2023-02-20T10:01:53.468Z,90.00
2023-02-20T10:04:23.787Z,89.95
2023-02-20T10:06:53.691Z,89.91
2023-02-20T10:09:20.459Z,90.10
2023-02-20T10:12:15.038Z,90.13
2023-02-20T10:14:56.929Z,90.14
2023-02-20T10:17:51.206Z,89.87
2023-02-20T10:20:33.320Z,89.85
2023-02-20T10:23:07.896Z,89.42
2023-02-20T10:25:45.517Z,89.72
2023-02-20T10:28:18.476Z,89.83
2023-02-20T10:30:49.187Z,89.63
2023-02-20T10:33:24.796Z,89.57
2023-02-20T10:36:16.364Z,89.10
2023-02-20T10:38:54.799Z,89.48
2023-02-20T10:41:31.141Z,89.27
2023-02-20T10:44:51.089Z,89.14
2023-02-20T10:47:23.458Z,89.32
2023-02-20T10:50:05.660Z,89.16
2023-02-20T10:52:51.959Z,88.96
2023-02-20T10:55:22.843Z,89.12
2023-02-20T10:58:06.116Z,89.23
2023-02-20T11:00:39.508Z,88.86
2023-02-20T11:03:14.322Z,88.91
2023-02-20T11:05:49.851Z,88.93
2023-02-20T11:08:20.740Z,88.98
2023-02-20T11:10:54.531Z,88.77
2023-02-20T11:13:28.209Z,88.71
2023-02-20T11:15:58.408Z,88.90
2023-02-20T11:18:32.637Z,88.81
2023-02-20T11:20:59.158Z,88.79
2023-02-20T11:23:51.718Z,88.84
2023-02-20T11:26:30.539Z,88.74
2023-02-20T11:28:59.382Z,88.81
2023-02-20T11:31:26.592Z,88.77
2023-02-20T11:33:55.168Z,88.99
2023-02-20T11:36:27.917Z,89.01
2023-02-20T11:39:15.855Z,88.65
2023-02-20T11:41:42.193Z,88.63
2023-02-20T11:44:14.394Z,88.48
2023-02-20T11:46:41.031Z,88.63
2023-02-20T11:49:22.659Z,88.29
2023-02-20T11:51:50.167Z,88.28
2023-02-20T11:54:25.566Z,88.59
2023-02-20T11:57:02.563Z,88.60
2023-02-20T11:59:48.541Z,88.39
2023-02-20T12:02:18.016Z,88.64
2023-02-20T12:05:00.316Z,88.31
2023-02-20T12:07:30.470Z,88.34
2023-02-20T12:10:02.891Z,87.93
2023-02-20T12:12:32.372Z,88.24
2023-02-20T12:14:59.040Z,88.29
2023-02-20T12:17:54.074Z,88.11
2023-02-20T12:20:27.700Z,87.78
2023-02-20T12:22:56.918Z,88.21
2023-02-20T12:25:52.635Z,88.04
2023-02-20T12:28:39.567Z,88.09
2023-02-20T12:31:33.950Z,88.21
2023-02-20T12:34:24.938Z,87.83
2023-02-20T12:37:03.208Z,87.97
2023-02-20T12:40:04.556Z,88.07
2023-02-20T12:42:51.108Z,87.97
2023-02-20T12:45:44.508Z,88.17
2023-02-20T12:48:31.630Z,87.78
2023-02-20T12:51:08.475Z,88.00
2023-02-20T12:53:53.021Z,87.88
2023-02-20T12:56:43.992Z,87.67
2023-02-20T12:59:39.131Z,87.55
2023-02-20T13:02:39.421Z,87.56
2023-02-20T13:05:12.484Z,87.44
2023-02-20T13:07:51.069Z,87.50
2023-02-20T13:10:23.081Z,87.30
2023-02-20T13:12:51.695Z,87.40
2023-02-20T13:15:22.461Z,87.33
2023-02-20T13:18:21.382Z,87.12
2023-02-20T13:20:52.451Z,87.10
2023-02-20T13:23:18.777Z,87.01
2023-02-20T13:25:49.610Z,86.70
2023-02-20T13:28:37.547Z,86.90
2023-02-20T13:31:09.965Z,86.33
2023-02-20T13:33:37.651Z,87.03
2023-02-20T13:36:06.337Z,86.66
2023-02-20T13:38:33.083Z,86.79
2023-02-20T13:41:06.135Z,86.96
2023-02-20T13:43:37.151Z,87.08
2023-02-20T13:46:11.413Z,87.05
2023-02-20T13:48:39.411Z,86.97
2023-02-20T13:51:14.979Z,86.63
2023-02-20T13:54:15.570Z,87.14
2023-02-20T13:56:47.218Z,86.87
2023-02-20T13:59:18.110Z,86.92
2023-02-20T14:02:01.101Z,86.60
2023-02-20T14:04:28.250Z,86.46
2023-02-20T14:06:58.761Z,86.58
2023-02-20T14:09:31.464Z,86.48
2023-02-20T14:12:13.441Z,86.30
2023-02-20T14:14:44.742Z,86.46
2023-02-20T14:17:19.773Z,86.39
2023-02-20T14:19:48.775Z,86.88
2023-02-20T14:22:22.822Z,86.71
2023-02-20T14:25:07.897Z,87.00
2023-02-20T14:27:34.243Z,87.18
2023-02-20T14:30:26.090Z,87.08
2023-02-20T14:32:56.692Z,87.17
2023-02-20T14:35:36.230Z,87.00
2023-02-20T14:38:28.851Z,87.18
2023-02-20T14:40:55.219Z,87.20
2023-02-20T14:43:23.485Z,86.98
2023-02-20T14:46:06.356Z,87.19
2023-02-20T14:48:38.534Z,87.15
2023-02-20T14:51:16.945Z,86.81
2023-02-20T14:53:45.120Z,86.96
2023-02-20T14:56:13.406Z,86.89
2023-02-20T14:58:40.146Z,87.07
2023-02-20T15:01:28.391Z,87.14
2023-02-20T15:04:01.672Z,87.07
2023-02-20T15:06:30.088Z,87.06
2023-02-20T15:09:03.568Z,86.94
2023-02-20T15:11:46.521Z,87.17
2023-02-20T15:14:23.313Z,87.08
2023-02-20T15:17:07.296Z,87.05
2023-02-20T15:19:39.124Z,86.91
2023-02-20T15:22:05.777Z,87.26
2023-02-20T15:24:41.369Z,87.21
2023-02-20T15:27:13.842Z,87.34
2023-02-20T15:29:41.144Z,87.16
2023-02-20T15:32:30.236Z,86.85
2023-02-20T15:34:58.360Z,86.96
2023-02-20T15:37:38.350Z,87.13
2023-02-20T15:40:26.079Z,87.06
2023-02-20T15:42:57.345Z,87.27
2023-02-20T15:45:29.204Z,87.18
2023-02-20T15:47:56.849Z,87.37
2023-02-20T15:50:23.976Z,87.59
2023-02-20T15:52:51.194Z,87.72
2023-02-20T15:55:20.609Z,87.77
2023-02-20T15:57:50.354Z,87.37
2023-02-20T16:00:26.567Z,87.51
2023-02-20T16:02:57.632Z,87.58
2023-02-20T16:05:24.058Z,87.73
2023-02-20T16:07:50.707Z,87.79
2023-02-20T16:10:19.642Z,87.76
2023-02-20T16:12:48.012Z,87.58
2023-02-20T16:15:21.386Z,87.69
2023-02-20T16:17:48.821Z,88.04
2023-02-20T16:20:22.076Z,87.58
2023-02-20T16:22:48.517Z,87.63
2023-02-20T16:25:17.398Z,87.73
2023-02-20T16:27:45.093Z,87.79
2023-02-20T16:30:32.269Z,87.97
2023-02-20T16:32:59.513Z,87.96
2023-02-20T16:35:26.063Z,87.91
2023-02-20T16:37:53.551Z,87.75
2023-02-20T16:40:20.154Z,87.92
2023-02-20T16:42:46.786Z,87.63
2023-02-20T16:45:16.515Z,87.69
2023-02-20T16:47:43.485Z,87.90
2023-02-20T16:50:20.516Z,87.75
2023-02-20T16:52:49.622Z,88.05
2023-02-20T16:55:32.437Z,88.18
2023-02-20T16:57:59.431Z,88.05
2023-02-20T17:00:29.042Z,88.09
2023-02-20T17:02:55.932Z,88.16
2023-02-20T17:05:25.654Z,88.05
2023-02-20T17:07:52.022Z,88.08
2023-02-20T17:10:18.563Z,88.16
2023-02-20T17:12:45.354Z,88.17
2023-02-20T17:15:14.984Z,88.20
2023-02-20T17:17:42.461Z,88.27
2023-02-20T17:20:17.677Z,88.44
2023-02-20T17:22:45.403Z,88.37
2023-02-20T17:25:17.108Z,88.52
2023-02-20T17:27:43.435Z,88.47
2023-02-20T17:30:11.664Z,88.64
2023-02-20T17:32:38.021Z,88.59
2023-02-20T17:35:05.926Z,88.37
2023-02-20T17:37:34.598Z,88.37
2023-02-20T17:40:01.815Z,88.69
2023-02-20T17:42:28.284Z,88.49
2023-02-20T17:44:54.952Z,88.54
2023-02-20T17:47:25.328Z,88.66
2023-02-20T17:49:53.607Z,88.53
2023-02-20T17:52:20.527Z,88.62
2023-02-20T17:54:49.278Z,88.59
2023-02-20T17:57:21.277Z,88.71
2023-02-20T17:59:51.184Z,88.77
2023-02-20T18:02:19.319Z,88.64
2023-02-20T18:04:46.068Z,88.70
2023-02-20T18:07:14.466Z,88.91
2023-02-20T18:09:41.229Z,88.77
2023-02-20T18:12:08.034Z,88.82
2023-02-20T18:14:34.541Z,89.02
2023-02-20T18:17:00.958Z,89.08
2023-02-20T18:19:29.297Z,89.50
2023-02-20T18:21:55.882Z,89.30
2023-02-20T18:24:24.866Z,89.40
2023-02-20T18:26:54.279Z,89.30
2023-02-20T18:29:21.482Z,89.61
2023-02-20T18:31:48.983Z,89.62
2023-02-20T18:34:16.164Z,89.68
2023-02-20T18:36:42.725Z,89.61
2023-02-20T18:39:10.098Z,89.77
2023-02-20T18:41:38.615Z,89.78
2023-02-20T18:44:05.289Z,89.85
2023-02-20T18:46:36.843Z,89.95
2023-02-20T18:49:03.703Z,90.00
2023-02-20T18:51:32.596Z,90.05
2023-02-20T18:53:59.142Z,90.27
2023-02-20T18:56:26.232Z,90.14
2023-02-20T18:58:53.178Z,90.31
2023-02-20T19:01:21.360Z,90.34
2023-02-20T19:03:50.091Z,90.20
2023-02-20T19:06:33.927Z,90.39
2023-02-20T19:09:01.429Z,90.48
2023-02-20T19:11:29.116Z,90.42
2023-02-20T19:13:55.698Z,90.43
2023-02-20T19:16:22.472Z,90.58
2023-02-20T19:18:50.869Z,90.58
2023-02-20T19:21:18.670Z,90.69
2023-02-20T19:23:45.816Z,90.69
2023-02-20T19:26:12.650Z,90.56
2023-02-20T19:28:41.989Z,90.64
2023-02-20T19:31:09.785Z,90.63
2023-02-20T19:33:36.210Z,90.79
2023-02-20T19:36:03.090Z,90.66
2023-02-20T19:38:29.584Z,90.80
2023-02-20T19:40:55.894Z,91.02
2023-02-20T19:43:22.358Z,90.94
2023-02-20T19:45:48.818Z,90.97
2023-02-20T19:48:15.666Z,90.92
2023-02-20T19:50:42.008Z,91.03
2023-02-20T19:53:08.524Z,90.81
2023-02-20T19:55:35.001Z,90.95
2023-02-20T19:58:01.300Z,91.08
2023-02-20T20:00:28.697Z,91.04
2023-02-20T20:02:58.044Z,91.04
2023-02-20T20:05:25.333Z,91.07
2023-02-20T20:07:52.138Z,91.14
2023-02-20T20:10:21.922Z,91.32
2023-02-20T20:12:48.401Z,91.38
2023-02-20T20:15:25.859Z,91.34
2023-02-20T20:17:55.456Z,91.24
2023-02-20T20:20:23.694Z,91.37
2023-02-20T20:22:52.189Z,91.32
2023-02-20T20:25:19.969Z,91.38
2023-02-20T20:27:49.062Z,91.50
2023-02-20T20:30:19.322Z,91.41
2023-02-20T20:32:48.454Z,91.35
2023-02-20T20:35:15.255Z,91.47
2023-02-20T20:37:41.623Z,91.36
2023-02-20T20:40:08.347Z,91.38
2023-02-20T20:42:34.746Z,91.47
2023-02-20T20:45:01.679Z,91.44
2023-02-20T20:47:30.299Z,91.51
2023-02-20T20:49:57.350Z,91.59
2023-02-20T20:52:24.816Z,91.53
2023-02-20T20:54:53.324Z,91.69
2023-02-20T20:57:22.182Z,91.61
2023-02-20T20:59:49.513Z,91.59
2023-02-20T21:02:17.210Z,91.65
2023-02-20T21:04:44.918Z,91.71
2023-02-20T21:07:11.490Z,91.77
2023-02-20T21:09:38.099Z,91.83
2023-02-20T21:12:04.934Z,91.74
2023-02-20T21:14:35.312Z,91.74
2023-02-20T21:17:04.714Z,91.82
2023-02-20T21:19:31.829Z,91.76
2023-02-20T21:21:58.248Z,91.83
2023-02-20T21:24:24.632Z,91.67
2023-02-20T21:26:51.027Z,91.68
2023-02-20T21:29:17.368Z,91.96
2023-02-20T21:31:44.584Z,91.76
2023-02-20T21:34:12.612Z,91.98
2023-02-20T21:36:39.164Z,91.92
2023-02-20T21:39:05.714Z,91.84
2023-02-20T21:41:50.627Z,92.00
2023-02-20T21:44:28.813Z,92.00
2023-02-20T21:47:00.657Z,91.94
2023-02-20T21:49:29.195Z,92.00
2023-02-20T21:51:56.372Z,92.08
2023-02-20T21:54:26.047Z,92.02
2023-02-20T21:56:52.666Z,91.93
2023-02-20T21:59:22.589Z,91.93
2023-02-20T22:01:49.737Z,92.01
2023-02-20T22:04:16.342Z,92.04
2023-02-20T22:06:45.332Z,92.05
2023-02-20T22:09:33.952Z,91.97
2023-02-20T22:12:18.633Z,91.81
2023-02-20T22:15:03.385Z,91.97
2023-02-20T22:17:48.317Z,91.83
2023-02-20T22:20:32.980Z,91.76
2023-02-20T22:23:17.743Z,91.71
2023-02-20T22:26:02.422Z,91.68
2023-02-20T22:28:47.098Z,91.92
2023-02-20T22:31:32.400Z,91.71
2023-02-20T22:34:17.160Z,91.97
2023-02-20T22:37:01.971Z,91.71
2023-02-20T22:39:46.980Z,91.92
2023-02-20T22:42:35.336Z,91.80
2023-02-20T22:45:20.966Z,91.83
2023-02-20T22:48:05.769Z,91.87
2023-02-20T22:50:50.438Z,91.72
2023-02-20T22:53:35.255Z,91.95
2023-02-20T22:56:20.087Z,91.84
2023-02-20T22:59:05.017Z,91.83
2023-02-20T23:01:50.071Z,91.89
2023-02-20T23:04:35.209Z,91.85
2023-02-20T23:07:20.009Z,91.96
2023-02-20T23:10:05.247Z,91.85
2023-02-20T23:12:50.006Z,91.89
2023-02-20T23:15:34.917Z,91.84
2023-02-20T23:18:19.737Z,92.03
2023-02-20T23:21:04.582Z,91.91
2023-02-20T23:23:49.249Z,92.11
2023-02-20T23:26:34.131Z,91.93
2023-02-20T23:29:18.833Z,92.06
2023-02-20T23:32:03.718Z,92.16
2023-02-20T23:34:49.172Z,92.14
2023-02-20T23:37:34.447Z,92.13
2023-02-20T23:40:24.006Z,92.14
2023-02-20T23:43:15.802Z,92.36
2023-02-20T23:46:00.791Z,92.21
2023-02-20T23:48:45.660Z,92.12
2023-02-20T23:51:31.870Z,92.09
2023-02-20T23:54:17.158Z,92.38
2023-02-20T23:57:01.929Z,92.33
2023-02-20T23:59:46.581Z,92.23
